This is the latest recevied weather packets stored in our database for station/object NG7N. If no packets are shown the sender has not sent any weather packets the latest 10 day(s).
| Time | Temp. | Humidity | Pressure | Rain* | Wind** | Luminosity | Snow |
|---|---|---|---|---|---|---|---|
| 1777776564 | 17.78° C | 61% | 1013.1 hPa | 0 mm | - | - | - |
| 1777775364 | 17.78° C | 61% | 1013.1 hPa | 0 mm | - | - | - |
| 1777774464 | 18.33° C | 60% | 1013.1 hPa | 0 mm | - | - | - |
| 1777773565 | 18.33° C | 60% | 1013.2 hPa | 0 mm | - | - | - |
| 1777772364 | 18.89° C | 58% | 1013.3 hPa | 0 mm | - | - | - |
| 1777771765 | 19.44° C | 56% | 1013.3 hPa | 0 mm | - | - | - |
| 1777771164 | 18.89° C | 55% | 1013.3 hPa | 0 mm | - | - | - |
| 1777770564 | 18.89° C | 55% | 1013.3 hPa | 0 mm | - | - | - |
| 1777768164 | 19.44° C | 54% | 1013.6 hPa | 0 mm | - | - | - |
| 1777767564 | 19.44° C | 54% | 1013.6 hPa | 0 mm | - | - | - |
| 1777766364 | 19.44° C | 54% | 1013.8 hPa | 0 mm | - | - | - |
| 1777766064 | 19.44° C | 55% | 1013.8 hPa | 0 mm | - | - | - |
| 1777765764 | 19.44° C | 57% | 1013.8 hPa | 0 mm | - | - | - |
| 1777765164 | 18.89° C | 57% | 1014.1 hPa | 0 mm | - | - | - |
| 1777764564 | 18.89° C | 58% | 1014.1 hPa | 0 mm | - | - | - |
| 1777764264 | 18.89° C | 58% | 1014.1 hPa | 0 mm | - | - | - |
| 1777762764 | 18.89° C | 63% | 1014.8 hPa | 0 mm | - | - | - |
| 1777762164 | 18.89° C | 64% | 1014.8 hPa | 0 mm | - | - | - |
| 1777761264 | 18.33° C | 64% | 1014.8 hPa | 0 mm | - | - | - |
| 1777759164 | 19.44° C | 59% | 1015.2 hPa | 0 mm | - | - | - |
| 1777758264 | 18.89° C | 61% | 1015.3 hPa | 0 mm | - | - | - |
| 1777757964 | 18.89° C | 61% | 1015.3 hPa | 0 mm | - | - | - |
| 1777756764 | 18.33° C | 68% | 1015.6 hPa | 0 mm | - | - | - |
| 1777755564 | 17.22° C | 70% | 1015.6 hPa | 0 mm | - | - | - |
| 1777754964 | 17.22° C | 72% | 1015.6 hPa | 0 mm | - | - | - |
* Rain latest hour (hover to see other rain measurements)
** Current wind speed in m/s (hover to see current wind gust speed)